Terminal Aerodrome Forecast
Issued by NWS

Home | Current Version | Previous Version | Graphics & Text | Print | Product List | Glossary On
Versions: 1 2 3 4 5 6 7 8 9 10 11 12 13 14 15 16 17
000
FTUS43 KFGF 231722
TAFBJI
TAF
KBJI 231722Z 2318/2418 02010KT P6SM OVC010
     FM232000 02010KT P6SM OVC020
     FM232200 02009KT P6SM BKN035
     FM240200 02005KT P6SM BKN050
     FM240400 02004KT P6SM SCT080
     FM241400 08004KT P6SM FEW130=

USA.gov is the U.S. government's official web portal to all federal, state and local government web resources and services.